sensor_id;sensor_type;location;lat;lon;timestamp;pressure;altitude;pressure_sealevel;temperature;humidity
46303;BME280;32029;51.358;5.628;2024-03-23T00:52:20;100752.25;;;10.74;100.00
46303;BME280;32029;51.358;5.628;2024-03-23T00:53:53;100758.00;;;10.79;100.00
46303;BME280;32029;51.358;5.628;2024-03-23T00:54:15;100755.00;;;10.74;100.00
46303;BME280;32029;51.358;5.628;2024-03-23T00:54:37;100753.69;;;10.70;100.00
46303;BME280;32029;51.358;5.628;2024-03-23T00:54:59;100744.75;;;10.68;100.00
46303;BME280;32029;51.358;5.628;2024-03-23T00:55:23;100752.47;;;10.73;100.00
46303;BME280;32029;51.358;5.628;2024-03-23T00:55:45;100746.88;;;10.66;100.00
46303;BME280;32029;51.358;5.628;2024-03-23T00:56:07;100761.53;;;10.73;100.00
46303;BME280;32029;51.358;5.628;2024-03-23T00:56:29;100768.72;;;10.74;100.00
46303;BME280;32029;51.358;5.628;2024-03-23T00:56:52;100742.13;;;10.60;100.00
46303;BME280;32029;51.358;5.628;2024-03-23T00:57:14;100755.75;;;10.68;100.00
46303;BME280;32029;51.358;5.628;2024-03-23T00:57:36;100764.28;;;10.73;100.00
46303;BME280;32029;51.358;5.628;2024-03-23T00:57:58;100768.53;;;10.76;100.00
46303;BME280;32029;51.358;5.628;2024-03-23T00:58:20;100768.53;;;10.76;100.00
46303;BME280;32029;51.358;5.628;2024-03-23T00:58:42;100756.06;;;10.73;100.00
46303;BME280;32029;51.358;5.628;2024-03-23T00:59:04;100767.50;;;10.77;100.00
46303;BME280;32029;51.358;5.628;2024-03-23T00:59:26;100767.50;;;10.77;100.00
46303;BME280;32029;51.358;5.628;2024-03-23T00:59:49;100747.25;;;10.63;100.00
46303;BME280;32029;51.358;5.628;2024-03-23T01:00:12;100757.06;;;10.72;100.00
46303;BME280;32029;51.358;5.628;2024-03-23T01:00:35;100768.91;;;10.73;100.00
46303;BME280;32029;51.358;5.628;2024-03-23T01:00:58;100765.31;;;10.72;100.00
46303;BME280;32029;51.358;5.628;2024-03-23T01:01:20;100756.22;;;10.72;100.00
46303;BME280;32029;51.358;5.628;2024-03-23T01:01:42;100750.66;;;10.65;100.00
46303;BME280;32029;51.358;5.628;2024-03-23T01:02:04;100767.19;;;10.72;100.00
46303;BME280;32029;51.358;5.628;2024-03-23T01:02:27;100758.50;;;10.68;100.00
46303;BME280;32029;51.358;5.628;2024-03-23T01:02:49;100754.41;;;10.64;100.00
46303;BME280;32029;51.358;5.628;2024-03-23T01:03:11;100756.78;;;10.67;100.00
46303;BME280;32029;51.358;5.628;2024-03-23T01:03:33;100761.91;;;10.70;100.00
46303;BME280;32029;51.358;5.628;2024-03-23T01:03:55;100762.97;;;10.69;100.00
46303;BME280;32029;51.358;5.628;2024-03-23T01:04:17;100752.25;;;10.60;100.00
46303;BME280;32029;51.358;5.628;2024-03-23T01:04:39;100755.69;;;10.62;100.00
46303;BME280;32029;51.358;5.628;2024-03-23T01:05:01;100764.84;;;10.69;100.00
46303;BME280;32029;51.358;5.628;2024-03-23T01:05:23;100751.03;;;10.62;100.00
46303;BME280;32029;51.358;5.628;2024-03-23T01:05:45;100758.22;;;10.63;100.00
46303;BME280;32029;51.358;5.628;2024-03-23T01:06:07;100748.88;;;10.58;100.00
46303;BME280;32029;51.358;5.628;2024-03-23T01:06:30;100762.00;;;10.62;100.00
46303;BME280;32029;51.358;5.628;2024-03-23T01:06:53;100756.91;;;10.59;100.00
46303;BME280;32029;51.358;5.628;2024-03-23T01:07:15;100759.06;;;10.64;100.00
46303;BME280;32029;51.358;5.628;2024-03-23T01:07:37;100758.59;;;10.60;100.00
46303;BME280;32029;51.358;5.628;2024-03-23T01:07:59;100745.81;;;10.52;100.00
46303;BME280;32029;51.358;5.628;2024-03-23T01:08:21;100755.19;;;10.58;100.00
46303;BME280;32029;51.358;5.628;2024-03-23T01:08:44;100752.63;;;10.57;100.00
46303;BME280;32029;51.358;5.628;2024-03-23T01:09:06;100769.56;;;10.60;100.00
46303;BME280;32029;51.358;5.628;2024-03-23T01:09:28;100748.38;;;10.54;100.00
46303;BME280;32029;51.358;5.628;2024-03-23T01:09:50;100741.75;;;10.48;100.00
46303;BME280;32029;51.358;5.628;2024-03-23T01:10:12;100740.25;;;10.46;100.00
46303;BME280;32029;51.358;5.628;2024-03-23T01:10:34;100753.88;;;10.54;100.00
46303;BME280;32029;51.358;5.628;2024-03-23T01:11:01;100754.34;;;10.58;100.00
46303;BME280;32029;51.358;5.628;2024-03-23T01:11:24;100749.81;;;10.50;100.00
46303;BME280;32029;51.358;5.628;2024-03-23T01:11:46;100742.78;;;10.47;100.00
46303;BME280;32029;51.358;5.628;2024-03-23T01:12:07;100751.88;;;10.48;100.00
46303;BME280;32029;51.358;5.628;2024-03-23T01:12:29;100748.66;;;10.44;100.00
46303;BME280;32029;51.358;5.628;2024-03-23T01:12:51;100741.84;;;10.40;100.00
46303;BME280;32029;51.358;5.628;2024-03-23T01:13:13;100760.56;;;10.51;100.00
46303;BME280;32029;51.358;5.628;2024-03-23T01:13:34;100760.09;;;10.48;100.00
46303;BME280;32029;51.358;5.628;2024-03-23T01:13:56;100749.50;;;10.45;100.00
46303;BME280;32029;51.358;5.628;2024-03-23T01:14:18;100756.13;;;10.50;100.00
46303;BME280;32029;51.358;5.628;2024-03-23T01:14:40;100753.56;;;10.49;100.00
46303;BME280;32029;51.358;5.628;2024-03-23T01:15:02;100742.31;;;10.44;100.00
46303;BME280;32029;51.358;5.628;2024-03-23T01:15:25;100757.72;;;10.45;100.00
46303;BME280;32029;51.358;5.628;2024-03-23T01:15:51;100740.50;;;10.36;100.00
46303;BME280;32029;51.358;5.628;2024-03-23T01:16:12;100740.16;;;10.39;100.00
46303;BME280;32029;51.358;5.628;2024-03-23T01:16:34;100740.16;;;10.39;100.00
46303;BME280;32029;51.358;5.628;2024-03-23T01:16:56;100733.97;;;10.37;100.00
46303;BME280;32029;51.358;5.628;2024-03-23T01:17:18;100748.16;;;10.41;100.00
46303;BME280;32029;51.358;5.628;2024-03-23T01:17:40;100732.97;;;10.38;100.00
46303;BME280;32029;51.358;5.628;2024-03-23T01:18:01;100727.38;;;10.32;100.00
46303;BME280;32029;51.358;5.628;2024-03-23T01:18:23;100728.41;;;10.30;100.00
46303;BME280;32029;51.358;5.628;2024-03-23T01:18:47;100737.78;;;10.36;100.00
46303;BME280;32029;51.358;5.628;2024-03-23T01:19:09;100736.91;;;10.36;100.00
46303;BME280;32029;51.358;5.628;2024-03-23T01:19:31;100739.66;;;10.36;100.00
46303;BME280;32029;51.358;5.628;2024-03-23T01:19:54;100725.66;;;10.30;100.00
46303;BME280;32029;51.358;5.628;2024-03-23T01:20:15;100726.53;;;10.31;100.00
46303;BME280;32029;51.358;5.628;2024-03-23T01:20:38;100731.44;;;10.36;100.00
46303;BME280;32029;51.358;5.628;2024-03-23T01:21:00;100713.38;;;10.26;100.00
46303;BME280;32029;51.358;5.628;2024-03-23T01:21:22;100716.75;;;10.28;100.00
46303;BME280;32029;51.358;5.628;2024-03-23T01:21:44;100721.88;;;10.32;100.00
46303;BME280;32029;51.358;5.628;2024-03-23T01:22:06;100727.38;;;10.32;100.00
46303;BME280;32029;51.358;5.628;2024-03-23T01:22:29;100727.84;;;10.35;100.00
46303;BME280;32029;51.358;5.628;2024-03-23T01:22:51;100721.03;;;10.31;100.00
46303;BME280;32029;51.358;5.628;2024-03-23T01:23:13;100731.25;;;10.37;100.00
46303;BME280;32029;51.358;5.628;2024-03-23T01:23:36;100728.00;;;10.34;100.00
46303;BME280;32029;51.358;5.628;2024-03-23T01:23:59;100730.31;;;10.30;100.00
46303;BME280;32029;51.358;5.628;2024-03-23T01:24:21;100733.13;;;10.37;100.00
46303;BME280;32029;51.358;5.628;2024-03-23T01:24:43;100704.31;;;10.18;100.00
46303;BME280;32029;51.358;5.628;2024-03-23T01:25:05;100699.41;;;10.13;100.00
46303;BME280;32029;51.358;5.628;2024-03-23T01:25:28;100704.31;;;10.18;100.00
46303;BME280;32029;51.358;5.628;2024-03-23T01:25:54;100723.56;;;10.33;100.00
46303;BME280;32029;51.358;5.628;2024-03-23T01:26:16;100729.44;;;10.29;100.00
46303;BME280;32029;51.358;5.628;2024-03-23T01:26:39;100719.56;;;10.20;100.00
46303;BME280;32029;51.358;5.628;2024-03-23T01:27:00;100718.00;;;10.26;100.00
46303;BME280;32029;51.358;5.628;2024-03-23T01:27:22;100723.34;;;10.19;100.00
46303;BME280;32029;51.358;5.628;2024-03-23T01:27:44;100721.25;;;10.21;100.00
46303;BME280;32029;51.358;5.628;2024-03-23T01:28:07;100721.25;;;10.21;100.00
46303;BME280;32029;51.358;5.628;2024-03-23T01:28:29;100722.78;;;10.24;100.00
46303;BME280;32029;51.358;5.628;2024-03-23T01:28:51;100715.13;;;10.19;100.00
46303;BME280;32029;51.358;5.628;2024-03-23T01:29:13;100717.88;;;10.19;100.00
46303;BME280;32029;51.358;5.628;2024-03-23T01:29:36;100726.75;;;10.21;100.00
46303;BME280;32029;51.358;5.628;2024-03-23T01:29:58;100726.09;;;10.19;100.00
46303;BME280;32029;51.358;5.628;2024-03-23T01:30:20;100708.41;;;10.07;100.00
46303;BME280;32029;51.358;5.628;2024-03-23T01:30:42;100716.06;;;10.12;100.00
46303;BME280;32029;51.358;5.628;2024-03-23T01:31:04;100739.81;;;10.19;100.00
46303;BME280;32029;51.358;5.628;2024-03-23T01:31:26;100743.41;;;10.20;100.00
46303;BME280;32029;51.358;5.628;2024-03-23T01:31:49;100740.38;;;10.15;100.00
46303;BME280;32029;51.358;5.628;2024-03-23T01:32:11;100732.03;;;10.08;100.00
46303;BME280;32029;51.358;5.628;2024-03-23T01:32:33;100737.16;;;10.11;100.00
46303;BME280;32029;51.358;5.628;2024-03-23T01:32:55;100741.78;;;10.11;100.00
46303;BME280;32029;51.358;5.628;2024-03-23T01:33:18;100740.47;;;10.06;100.00
46303;BME280;32029;51.358;5.628;2024-03-23T01:33:40;100749.13;;;10.10;100.00
46303;BME280;32029;51.358;5.628;2024-03-23T01:34:04;100743.38;;;10.05;100.00
46303;BME280;32029;51.358;5.628;2024-03-23T01:34:25;100747.34;;;10.02;100.00
46303;BME280;32029;51.358;5.628;2024-03-23T01:34:47;100750.19;;;10.09;100.00
46303;BME280;32029;51.358;5.628;2024-03-23T01:35:09;100754.16;;;10.06;100.00
46303;BME280;32029;51.358;5.628;2024-03-23T01:35:31;100747.16;;;10.04;100.00
46303;BME280;32029;51.358;5.628;2024-03-23T01:35:54;100748.84;;;10.05;100.00
46303;BME280;32029;51.358;5.628;2024-03-23T01:36:16;100742.22;;;9.99;100.00
46303;BME280;32029;51.358;5.628;2024-03-23T01:36:38;100753.00;;;10.01;100.00
46303;BME280;32029;51.358;5.628;2024-03-23T01:37:00;100747.53;;;10.01;100.00
46303;BME280;32029;51.358;5.628;2024-03-23T01:37:23;100751.94;;;10.02;100.00
46303;BME280;32029;51.358;5.628;2024-03-23T01:37:45;100743.66;;;9.95;100.00
46303;BME280;32029;51.358;5.628;2024-03-23T01:38:07;100743.16;;;9.92;100.00
46303;BME280;32029;51.358;5.628;2024-03-23T01:38:30;100731.03;;;9.86;100.00
46303;BME280;32029;51.358;5.628;2024-03-23T01:38:52;100745.22;;;9.90;100.00
46303;BME280;32029;51.358;5.628;2024-03-23T01:39:15;100744.84;;;9.93;100.00
46303;BME280;32029;51.358;5.628;2024-03-23T01:39:37;100749.50;;;9.92;100.00
46303;BME280;32029;51.358;5.628;2024-03-23T01:39:59;100749.38;;;9.86;100.00
46303;BME280;32029;51.358;5.628;2024-03-23T01:40:20;100740.00;;;9.80;100.00
46303;BME280;32029;51.358;5.628;2024-03-23T01:40:42;100735.09;;;9.75;100.00
46303;BME280;32029;51.358;5.628;2024-03-23T01:41:04;100736.78;;;9.76;100.00
46303;BME280;32029;51.358;5.628;2024-03-23T01:41:26;100736.94;;;9.75;100.00
46303;BME280;32029;51.358;5.628;2024-03-23T01:41:49;100754.25;;;9.75;100.00
46303;BME280;32029;51.358;5.628;2024-03-23T01:42:11;100742.25;;;9.76;100.00
46303;BME280;32029;51.358;5.628;2024-03-23T01:42:34;100737.81;;;9.75;100.00
46303;BME280;32029;51.358;5.628;2024-03-23T01:42:59;100737.16;;;9.73;100.00
46303;BME280;32029;51.358;5.628;2024-03-23T01:43:24;100735.59;;;9.71;100.00
46303;BME280;32029;51.358;5.628;2024-03-23T01:43:46;100731.72;;;9.65;100.00
46303;BME280;32029;51.358;5.628;2024-03-23T01:44:09;100734.47;;;9.65;100.00
46303;BME280;32029;51.358;5.628;2024-03-23T01:44:31;100730.41;;;9.61;100.00
46303;BME280;32029;51.358;5.628;2024-03-23T01:44:53;100737.56;;;9.62;100.00
46303;BME280;32029;51.358;5.628;2024-03-23T01:45:15;100734.47;;;9.65;100.00
46303;BME280;32029;51.358;5.628;2024-03-23T01:45:37;100732.09;;;9.62;100.00
46303;BME280;32029;51.358;5.628;2024-03-23T01:46:00;100730.59;;;9.60;100.00
46303;BME280;32029;51.358;5.628;2024-03-23T01:46:22;100726.97;;;9.59;100.00
46303;BME280;32029;51.358;5.628;2024-03-23T01:46:44;100735.69;;;9.63;100.00
46303;BME280;32029;51.358;5.628;2024-03-23T01:47:07;100727.84;;;9.60;100.00
46303;BME280;32029;51.358;5.628;2024-03-23T01:47:29;100731.44;;;9.60;100.00
46303;BME280;32029;51.358;5.628;2024-03-23T01:47:52;100732.09;;;9.62;100.00
46303;BME280;32029;51.358;5.628;2024-03-23T01:48:14;100733.13;;;9.61;100.00
46303;BME280;32029;51.358;5.628;2024-03-23T01:48:37;100720.16;;;9.55;100.00
46303;BME280;32029;51.358;5.628;2024-03-23T01:48:59;100718.94;;;9.57;100.00
46303;BME280;32029;51.358;5.628;2024-03-23T01:49:21;100705.81;;;9.53;100.00
46303;BME280;32029;51.358;5.628;2024-03-23T01:49:44;100708.47;;;9.61;100.00
46303;BME280;32029;51.358;5.628;2024-03-23T01:50:07;100699.97;;;9.56;100.00
46303;BME280;32029;51.358;5.628;2024-03-23T01:50:31;100703.84;;;9.62;100.00
46303;BME280;32029;51.358;5.628;2024-03-23T01:50:53;100710.38;;;9.61;100.00
46303;BME280;32029;51.358;5.628;2024-03-23T01:51:15;100706.38;;;9.63;100.00
46303;BME280;32029;51.358;5.628;2024-03-23T01:51:38;100696.69;;;9.61;100.00
46303;BME280;32029;51.358;5.628;2024-03-23T01:52:02;100674.72;;;9.46;100.00
46303;BME280;32029;51.358;5.628;2024-03-23T01:52:23;100706.88;;;9.67;100.00
46303;BME280;32029;51.358;5.628;2024-03-23T01:52:46;100692.25;;;9.60;100.00
46303;BME280;32029;51.358;5.628;2024-03-23T01:53:08;100705.19;;;9.66;100.00
46303;BME280;32029;51.358;5.628;2024-03-23T01:53:31;100699.22;;;9.62;100.00
46303;BME280;32029;51.358;5.628;2024-03-23T01:53:54;100715.78;;;9.69;100.00
46303;BME280;32029;51.358;5.628;2024-03-23T01:54:16;100696.31;;;9.64;100.00
46303;BME280;32029;51.358;5.628;2024-03-23T01:54:40;100718.69;;;9.67;100.00
46303;BME280;32029;51.358;5.628;2024-03-23T01:55:03;100706.72;;;9.68;100.00
46303;BME280;32029;51.358;5.628;2024-03-23T01:55:25;100701.97;;;9.62;100.00
46303;BME280;32029;51.358;5.628;2024-03-23T01:55:48;100711.50;;;9.66;100.00
46303;BME280;32029;51.358;5.628;2024-03-23T01:56:11;100688.69;;;9.51;100.00
46303;BME280;32029;51.358;5.628;2024-03-23T01:56:34;100718.69;;;9.67;100.00
46303;BME280;32029;51.358;5.628;2024-03-23T01:56:55;100705.75;;;9.61;100.00
46303;BME280;32029;51.358;5.628;2024-03-23T01:57:17;100714.25;;;9.66;100.00
46303;BME280;32029;51.358;5.628;2024-03-23T01:57:40;100709.13;;;9.63;100.00
46303;BME280;32029;51.358;5.628;2024-03-23T01:58:03;100720.78;;;9.65;100.00
46303;BME280;32029;51.358;5.628;2024-03-23T01:58:26;100722.81;;;9.63;100.00
46303;BME280;32029;51.358;5.628;2024-03-23T01:58:49;100712.25;;;9.60;100.00
46303;BME280;32029;51.358;5.628;2024-03-23T01:59:10;100714.31;;;9.58;100.00
46303;BME280;32029;51.358;5.628;2024-03-23T01:59:33;100706.47;;;9.55;100.00
46303;BME280;32029;51.358;5.628;2024-03-23T01:59:54;100711.56;;;9.58;100.00
46303;BME280;32029;51.358;5.628;2024-03-23T02:00:16;100719.50;;;9.53;100.00
46303;BME280;32029;51.358;5.628;2024-03-23T02:00:39;100695.56;;;9.47;100.00
46303;BME280;32029;51.358;5.628;2024-03-23T02:01:01;100715.06;;;9.52;100.00
46303;BME280;32029;51.358;5.628;2024-03-23T02:01:23;100713.84;;;9.54;100.00
46303;BME280;32029;51.358;5.628;2024-03-23T02:01:45;100719.50;;;9.53;100.00
46303;BME280;32029;51.358;5.628;2024-03-23T02:02:08;100727.16;;;9.57;100.00
46303;BME280;32029;51.358;5.628;2024-03-23T02:02:31;100727.38;;;9.56;100.00
46303;BME280;32029;51.358;5.628;2024-03-23T02:02:52;100729.06;;;9.57;100.00
46303;BME280;32029;51.358;5.628;2024-03-23T02:03:25;100726.47;;;9.55;100.00
46303;BME280;32029;51.358;5.628;2024-03-23T02:03:48;100714.59;;;9.48;100.00
46303;BME280;32029;51.358;5.628;2024-03-23T02:04:10;100733.84;;;9.55;100.00
46303;BME280;32029;51.358;5.628;2024-03-23T02:04:32;100726.69;;;9.54;100.00
46303;BME280;32029;51.358;5.628;2024-03-23T02:04:54;100721.56;;;9.51;100.00
46303;BME280;32029;51.358;5.628;2024-03-23T02:05:16;100721.41;;;9.52;100.00
46303;BME280;32029;51.358;5.628;2024-03-23T02:05:38;100725.63;;;9.55;100.00
46303;BME280;32029;51.358;5.628;2024-03-23T02:06:00;100716.47;;;9.48;100.00
46303;BME280;32029;51.358;5.628;2024-03-23T02:06:24;100726.47;;;9.55;100.00
46303;BME280;32029;51.358;5.628;2024-03-23T02:06:46;100724.78;;;9.54;100.00
46303;BME280;32029;51.358;5.628;2024-03-23T02:07:09;100731.59;;;9.58;100.00
46303;BME280;32029;51.358;5.628;2024-03-23T02:07:30;100736.22;;;9.58;100.00
46303;BME280;32029;51.358;5.628;2024-03-23T02:07:53;100726.69;;;9.54;100.00
46303;BME280;32029;51.358;5.628;2024-03-23T02:08:15;100732.84;;;9.56;100.00
46303;BME280;32029;51.358;5.628;2024-03-23T02:08:38;100722.91;;;9.55;100.00
46303;BME280;32029;51.358;5.628;2024-03-23T02:09:00;100730.47;;;9.53;100.00
46303;BME280;32029;51.358;5.628;2024-03-23T02:09:24;100733.19;;;9.53;100.00
46303;BME280;32029;51.358;5.628;2024-03-23T02:09:46;100736.22;;;9.58;100.00
46303;BME280;32029;51.358;5.628;2024-03-23T02:10:10;100733.00;;;9.54;100.00
46303;BME280;32029;51.358;5.628;2024-03-23T02:10:33;100736.59;;;9.55;100.00
46303;BME280;32029;51.358;5.628;2024-03-23T02:10:55;100741.72;;;9.58;100.00
46303;BME280;32029;51.358;5.628;2024-03-23T02:11:18;100739.53;;;9.53;100.00
46303;BME280;32029;51.358;5.628;2024-03-23T02:11:40;100744.81;;;9.55;100.00
46303;BME280;32029;51.358;5.628;2024-03-23T02:12:03;100733.06;;;9.46;100.00
46303;BME280;32029;51.358;5.628;2024-03-23T02:12:26;100742.47;;;9.52;100.00
46303;BME280;32029;51.358;5.628;2024-03-23T02:12:48;100730.53;;;9.45;100.00
46303;BME280;32029;51.358;5.628;2024-03-23T02:13:10;100748.59;;;9.54;100.00
46303;BME280;32029;51.358;5.628;2024-03-23T02:13:32;100742.81;;;9.49;100.00
46303;BME280;32029;51.358;5.628;2024-03-23T02:13:54;100740.72;;;9.51;100.00
46303;BME280;32029;51.358;5.628;2024-03-23T02:14:16;100750.69;;;9.52;100.00
46303;BME280;32029;51.358;5.628;2024-03-23T02:14:39;100754.28;;;9.52;100.00
46303;BME280;32029;51.358;5.628;2024-03-23T02:15:00;100747.38;;;9.56;100.00
46303;BME280;32029;51.358;5.628;2024-03-23T02:15:23;100746.41;;;9.49;100.00
46303;BME280;32029;51.358;5.628;2024-03-23T02:15:44;100741.78;;;9.50;100.00
46303;BME280;32029;51.358;5.628;2024-03-23T02:16:09;100746.91;;;9.53;100.00
46303;BME280;32029;51.358;5.628;2024-03-23T02:16:31;100750.97;;;9.57;100.00
46303;BME280;32029;51.358;5.628;2024-03-23T02:16:53;100751.81;;;9.57;100.00
46303;BME280;32029;51.358;5.628;2024-03-23T02:17:15;100749.94;;;9.58;100.00
46303;BME280;32029;51.358;5.628;2024-03-23T02:17:37;100750.13;;;9.56;100.00
46303;BME280;32029;51.358;5.628;2024-03-23T02:17:59;100745.50;;;9.57;100.00
46303;BME280;32029;51.358;5.628;2024-03-23T02:18:21;100740.19;;;9.55;100.00
46303;BME280;32029;51.358;5.628;2024-03-23T02:18:43;100729.28;;;9.47;100.00
46303;BME280;32029;51.358;5.628;2024-03-23T02:19:05;100745.31;;;9.58;100.00
46303;BME280;32029;51.358;5.628;2024-03-23T02:19:27;100735.94;;;9.53;100.00
46303;BME280;32029;51.358;5.628;2024-03-23T02:19:50;100744.28;;;9.60;100.00
46303;BME280;32029;51.358;5.628;2024-03-23T02:20:12;100759.13;;;9.65;100.00
46303;BME280;32029;51.358;5.628;2024-03-23T02:20:35;100738.31;;;9.56;100.00
46303;BME280;32029;51.358;5.628;2024-03-23T02:20:57;100745.78;;;9.62;100.00
46303;BME280;32029;51.358;5.628;2024-03-23T02:21:19;100756.59;;;9.64;100.00
46303;BME280;32029;51.358;5.628;2024-03-23T02:21:41;100752.97;;;9.63;100.00
46303;BME280;32029;51.358;5.628;2024-03-23T02:22:03;100745.97;;;9.61;100.00
46303;BME280;32029;51.358;5.628;2024-03-23T02:22:25;100753.28;;;9.68;100.00
46303;BME280;32029;51.358;5.628;2024-03-23T02:22:52;100744.75;;;9.63;100.00
46303;BME280;32029;51.358;5.628;2024-03-23T02:23:17;100752.25;;;9.69;100.00
46303;BME280;32029;51.358;5.628;2024-03-23T02:23:39;100758.41;;;9.71;100.00
46303;BME280;32029;51.358;5.628;2024-03-23T02:24:02;100737.56;;;9.62;100.00
46303;BME280;32029;51.358;5.628;2024-03-23T02:24:24;100748.16;;;9.65;100.00
46303;BME280;32029;51.358;5.628;2024-03-23T02:24:46;100753.78;;;9.72;100.00
46303;BME280;32029;51.358;5.628;2024-03-23T02:25:08;100744.75;;;9.63;100.00
46303;BME280;32029;51.358;5.628;2024-03-23T02:25:30;100752.72;;;9.73;100.00
46303;BME280;32029;51.358;5.628;2024-03-23T02:25:52;100741.00;;;9.64;100.00
46303;BME280;32029;51.358;5.628;2024-03-23T02:26:15;100742.34;;;9.68;100.00
46303;BME280;32029;51.358;5.628;2024-03-23T02:26:37;100738.25;;;9.64;100.00
46303;BME280;32029;51.358;5.628;2024-03-23T02:26:59;100745.72;;;9.70;100.00
46303;BME280;32029;51.358;5.628;2024-03-23T02:27:21;100758.88;;;9.75;100.00
46303;BME280;32029;51.358;5.628;2024-03-23T02:27:43;100756.31;;;9.73;100.00
46303;BME280;32029;51.358;5.628;2024-03-23T02:28:06;100740.59;;;9.67;100.00
46303;BME280;32029;51.358;5.628;2024-03-23T02:28:30;100755.28;;;9.74;100.00
46303;BME280;32029;51.358;5.628;2024-03-23T02:28:51;100754.63;;;9.72;100.00
46303;BME280;32029;51.358;5.628;2024-03-23T02:29:14;100758.88;;;9.75;100.00
46303;BME280;32029;51.358;5.628;2024-03-23T02:29:36;100748.81;;;9.67;100.00
46303;BME280;32029;51.358;5.628;2024-03-23T02:29:58;100763.50;;;9.74;100.00
46303;BME280;32029;51.358;5.628;2024-03-23T02:30:20;100761.31;;;9.70;100.00
46303;BME280;32029;51.358;5.628;2024-03-23T02:30:43;100767.63;;;9.70;100.00
46303;BME280;32029;51.358;5.628;2024-03-23T02:31:05;100762.16;;;9.70;100.00
46303;BME280;32029;51.358;5.628;2024-03-23T02:31:27;100768.31;;;9.72;100.00
46303;BME280;32029;51.358;5.628;2024-03-23T02:31:49;100762.16;;;9.70;100.00
46303;BME280;32029;51.358;5.628;2024-03-23T02:32:11;100762.16;;;9.70;100.00
46303;BME280;32029;51.358;5.628;2024-03-23T02:32:33;100763.41;;;9.68;100.00
46303;BME280;32029;51.358;5.628;2024-03-23T02:32:55;100759.97;;;9.66;100.00
46303;BME280;32029;51.358;5.628;2024-03-23T02:33:18;100769.72;;;9.68;100.00
46303;BME280;32029;51.358;5.628;2024-03-23T02:33:40;100766.31;;;9.66;100.00
46303;BME280;32029;51.358;5.628;2024-03-23T02:34:02;100775.56;;;9.65;100.00
46303;BME280;32029;51.358;5.628;2024-03-23T02:34:25;100790.66;;;9.61;100.00
46303;BME280;32029;51.358;5.628;2024-03-23T02:34:47;100771.19;;;9.56;100.00
46303;BME280;32029;51.358;5.628;2024-03-23T02:35:09;100771.19;;;9.56;100.00
46303;BME280;32029;51.358;5.628;2024-03-23T02:35:32;100768.31;;;9.49;100.00
46303;BME280;32029;51.358;5.628;2024-03-23T02:35:56;100768.50;;;9.48;100.00
46303;BME280;32029;51.358;5.628;2024-03-23T02:36:18;100751.63;;;9.36;100.00
46303;BME280;32029;51.358;5.628;2024-03-23T02:36:40;100756.94;;;9.38;100.00
46303;BME280;32029;51.358;5.628;2024-03-23T02:37:02;100753.00;;;9.32;100.00
46303;BME280;32029;51.358;5.628;2024-03-23T02:37:24;100765.69;;;9.33;100.00
46303;BME280;32029;51.358;5.628;2024-03-23T02:37:46;100766.25;;;9.20;100.00
46303;BME280;32029;51.358;5.628;2024-03-23T02:38:09;100765.19;;;9.29;100.00
46303;BME280;32029;51.358;5.628;2024-03-23T02:38:31;100751.56;;;9.21;100.00
46303;BME280;32029;51.358;5.628;2024-03-23T02:38:53;100744.06;;;9.15;100.00
46303;BME280;32029;51.358;5.628;2024-03-23T02:39:15;100756.41;;;9.11;100.00
46303;BME280;32029;51.358;5.628;2024-03-23T02:39:37;100749.56;;;9.07;100.00
46303;BME280;32029;51.358;5.628;2024-03-23T02:39:59;100753.03;;;9.01;100.00
46303;BME280;32029;51.358;5.628;2024-03-23T02:40:25;100739.75;;;8.90;100.00
46303;BME280;32029;51.358;5.628;2024-03-23T02:40:47;100752.22;;;8.92;100.00
46303;BME280;32029;51.358;5.628;2024-03-23T02:41:09;100741.81;;;8.88;100.00
46303;BME280;32029;51.358;5.628;2024-03-23T02:41:31;100749.66;;;8.91;100.00
46303;BME280;32029;51.358;5.628;2024-03-23T02:41:53;100736.03;;;8.82;100.00
46303;BME280;32029;51.358;5.628;2024-03-23T02:42:15;100741.16;;;8.77;100.00
46303;BME280;32029;51.358;5.628;2024-03-23T02:42:36;100738.09;;;8.72;100.00
46303;BME280;32029;51.358;5.628;2024-03-23T02:42:58;100756.56;;;8.78;100.00
46303;BME280;32029;51.358;5.628;2024-03-23T02:43:20;100725.84;;;8.60;100.00
46303;BME280;32029;51.358;5.628;2024-03-23T02:43:42;100734.56;;;8.64;100.00
46303;BME280;32029;51.358;5.628;2024-03-23T02:44:04;100732.16;;;8.61;100.00
46303;BME280;32029;51.358;5.628;2024-03-23T02:44:27;100751.47;;;8.67;100.00
46303;BME280;32029;51.358;5.628;2024-03-23T02:44:48;100720.22;;;8.53;100.00
46303;BME280;32029;51.358;5.628;2024-03-23T02:45:10;100734.75;;;8.54;100.00
46303;BME280;32029;51.358;5.628;2024-03-23T02:45:32;100725.19;;;8.50;100.00
46303;BME280;32029;51.358;5.628;2024-03-23T02:45:54;100729.50;;;8.44;100.00
46303;BME280;32029;51.358;5.628;2024-03-23T02:46:16;100739.41;;;8.45;100.00
46303;BME280;32029;51.358;5.628;2024-03-23T02:46:38;100723.19;;;8.35;100.00
46303;BME280;32029;51.358;5.628;2024-03-23T02:46:59;100731.38;;;8.35;100.00
46303;BME280;32029;51.358;5.628;2024-03-23T02:47:21;100727.28;;;8.31;100.00
46303;BME280;32029;51.358;5.628;2024-03-23T02:47:45;100734.66;;;8.31;100.00
46303;BME280;32029;51.358;5.628;2024-03-23T02:48:07;100729.88;;;8.25;100.00
46303;BME280;32029;51.358;5.628;2024-03-23T02:48:29;100726.28;;;8.24;100.00
46303;BME280;32029;51.358;5.628;2024-03-23T02:48:51;100725.09;;;8.19;100.00
46303;BME280;32029;51.358;5.628;2024-03-23T02:49:14;100734.63;;;8.23;100.00
46303;BME280;32029;51.358;5.628;2024-03-23T02:49:37;100727.16;;;8.17;100.00